sensor_id;sensor_type;location;lat;lon;timestamp;P1;P2;P0
70197;PMS5003;57582;-34.876;138.628;2023-08-31T00:01:43;0.30;0.30;0.00
70197;PMS5003;57582;-34.876;138.628;2023-08-31T00:04:42;0.00;0.00;0.00
70197;PMS5003;57582;-34.876;138.628;2023-08-31T00:07:42;0.60;0.00;0.00
70197;PMS5003;57582;-34.876;138.628;2023-08-31T00:10:43;0.03;0.00;0.00
70197;PMS5003;57582;-34.876;138.628;2023-08-31T00:13:42;0.27;0.00;0.00
70197;PMS5003;57582;-34.876;138.628;2023-08-31T00:16:43;1.07;0.30;0.30
70197;PMS5003;57582;-34.876;138.628;2023-08-31T00:19:42;0.00;0.00;0.00
70197;PMS5003;57582;-34.876;138.628;2023-08-31T00:22:43;0.00;0.00;0.00
70197;PMS5003;57582;-34.876;138.628;2023-08-31T00:25:43;0.53;0.00;0.00
70197;PMS5003;57582;-34.876;138.628;2023-08-31T00:28:43;0.47;0.00;0.00
70197;PMS5003;57582;-34.876;138.628;2023-08-31T00:31:42;0.00;0.00;0.00
70197;PMS5003;57582;-34.876;138.628;2023-08-31T00:34:44;0.00;0.00;0.00
70197;PMS5003;57582;-34.876;138.628;2023-08-31T00:37:43;0.00;0.00;0.00
70197;PMS5003;57582;-34.876;138.628;2023-08-31T00:40:43;1.30;0.00;0.00
70197;PMS5003;57582;-34.876;138.628;2023-08-31T00:43:42;0.10;0.00;0.00
70197;PMS5003;57582;-34.876;138.628;2023-08-31T00:46:43;0.00;0.00;0.00
70197;PMS5003;57582;-34.876;138.628;2023-08-31T00:49:43;0.33;0.00;0.00
70197;PMS5003;57582;-34.876;138.628;2023-08-31T00:52:43;0.40;0.00;0.00
70197;PMS5003;57582;-34.876;138.628;2023-08-31T00:55:44;0.23;0.00;0.00
70197;PMS5003;57582;-34.876;138.628;2023-08-31T00:58:43;0.23;0.23;0.00
70197;PMS5003;57582;-34.876;138.628;2023-08-31T01:01:51;2.77;2.77;0.00
70197;PMS5003;57582;-34.876;138.628;2023-08-31T01:05:11;0.63;0.10;0.00
70197;PMS5003;57582;-34.876;138.628;2023-08-31T01:10:55;0.47;0.00;0.00
70197;PMS5003;57582;-34.876;138.628;2023-08-31T01:13:51;0.00;0.00;0.00
70197;PMS5003;57582;-34.876;138.628;2023-08-31T01:16:45;0.00;0.00;0.00
70197;PMS5003;57582;-34.876;138.628;2023-08-31T01:19:52;0.00;0.00;0.00
70197;PMS5003;57582;-34.876;138.628;2023-08-31T01:22:48;0.00;0.00;0.00
70197;PMS5003;57582;-34.876;138.628;2023-08-31T01:25:43;0.00;0.00;0.00
70197;PMS5003;57582;-34.876;138.628;2023-08-31T01:28:43;0.00;0.00;0.00
70197;PMS5003;57582;-34.876;138.628;2023-08-31T01:31:43;0.00;0.00;0.00
70197;PMS5003;57582;-34.876;138.628;2023-08-31T01:34:43;0.23;0.23;0.00
70197;PMS5003;57582;-34.876;138.628;2023-08-31T01:37:51;0.00;0.00;0.00
70197;PMS5003;57582;-34.876;138.628;2023-08-31T01:40:49;0.33;0.00;0.00
70197;PMS5003;57582;-34.876;138.628;2023-08-31T01:43:43;0.00;0.00;0.00
70197;PMS5003;57582;-34.876;138.628;2023-08-31T01:46:46;0.00;0.00;0.00
70197;PMS5003;57582;-34.876;138.628;2023-08-31T01:49:43;0.43;0.00;0.00
70197;PMS5003;57582;-34.876;138.628;2023-08-31T01:52:42;0.00;0.00;0.00
70197;PMS5003;57582;-34.876;138.628;2023-08-31T01:55:42;0.70;0.37;0.07
70197;PMS5003;57582;-34.876;138.628;2023-08-31T01:58:43;0.37;0.00;0.00
70197;PMS5003;57582;-34.876;138.628;2023-08-31T02:01:43;0.00;0.00;0.00
70197;PMS5003;57582;-34.876;138.628;2023-08-31T02:04:43;0.00;0.00;0.00
70197;PMS5003;57582;-34.876;138.628;2023-08-31T02:07:43;0.00;0.00;0.00
70197;PMS5003;57582;-34.876;138.628;2023-08-31T02:10:45;0.00;0.00;0.00
70197;PMS5003;57582;-34.876;138.628;2023-08-31T02:13:43;1.33;0.33;0.00
70197;PMS5003;57582;-34.876;138.628;2023-08-31T02:16:43;0.00;0.00;0.00
70197;PMS5003;57582;-34.876;138.628;2023-08-31T02:19:43;0.37;0.00;0.00
70197;PMS5003;57582;-34.876;138.628;2023-08-31T02:22:43;0.00;0.00;0.00
70197;PMS5003;57582;-34.876;138.628;2023-08-31T02:25:43;0.33;0.00;0.00
70197;PMS5003;57582;-34.876;138.628;2023-08-31T02:28:43;1.40;0.00;0.00
70197;PMS5003;57582;-34.876;138.628;2023-08-31T02:31:43;0.00;0.00;0.00
70197;PMS5003;57582;-34.876;138.628;2023-08-31T02:34:43;0.67;0.00;0.00
70197;PMS5003;57582;-34.876;138.628;2023-08-31T02:37:43;0.67;0.00;0.00
70197;PMS5003;57582;-34.876;138.628;2023-08-31T02:40:48;0.27;0.07;0.00
70197;PMS5003;57582;-34.876;138.628;2023-08-31T02:43:43;0.43;0.43;0.00
70197;PMS5003;57582;-34.876;138.628;2023-08-31T02:46:43;0.00;0.00;0.00
70197;PMS5003;57582;-34.876;138.628;2023-08-31T02:49:43;0.47;0.47;0.43
70197;PMS5003;57582;-34.876;138.628;2023-08-31T02:52:43;0.00;0.00;0.00
70197;PMS5003;57582;-34.876;138.628;2023-08-31T02:55:43;0.03;0.03;0.00
70197;PMS5003;57582;-34.876;138.628;2023-08-31T02:58:43;0.00;0.00;0.00
70197;PMS5003;57582;-34.876;138.628;2023-08-31T03:01:43;0.03;0.00;0.00
70197;PMS5003;57582;-34.876;138.628;2023-08-31T03:04:43;0.00;0.00;0.00
70197;PMS5003;57582;-34.876;138.628;2023-08-31T03:07:43;0.00;0.00;0.00
70197;PMS5003;57582;-34.876;138.628;2023-08-31T03:10:43;0.00;0.00;0.00
70197;PMS5003;57582;-34.876;138.628;2023-08-31T03:13:43;0.00;0.00;0.00
70197;PMS5003;57582;-34.876;138.628;2023-08-31T03:16:43;0.17;0.00;0.00
70197;PMS5003;57582;-34.876;138.628;2023-08-31T03:19:43;0.33;0.00;0.00
70197;PMS5003;57582;-34.876;138.628;2023-08-31T03:22:43;0.00;0.00;0.00
70197;PMS5003;57582;-34.876;138.628;2023-08-31T03:25:43;0.00;0.00;0.00
70197;PMS5003;57582;-34.876;138.628;2023-08-31T03:28:43;0.17;0.00;0.00
70197;PMS5003;57582;-34.876;138.628;2023-08-31T03:31:43;0.37;0.00;0.00
70197;PMS5003;57582;-34.876;138.628;2023-08-31T03:34:43;0.00;0.00;0.00
70197;PMS5003;57582;-34.876;138.628;2023-08-31T03:37:46;0.00;0.00;0.00
70197;PMS5003;57582;-34.876;138.628;2023-08-31T03:40:43;0.00;0.00;0.00
70197;PMS5003;57582;-34.876;138.628;2023-08-31T03:43:43;0.00;0.00;0.00
70197;PMS5003;57582;-34.876;138.628;2023-08-31T03:46:43;0.00;0.00;0.00
70197;PMS5003;57582;-34.876;138.628;2023-08-31T03:49:43;0.00;0.00;0.00
70197;PMS5003;57582;-34.876;138.628;2023-08-31T03:52:43;0.00;0.00;0.00
70197;PMS5003;57582;-34.876;138.628;2023-08-31T03:55:43;0.00;0.00;0.00
70197;PMS5003;57582;-34.876;138.628;2023-08-31T03:58:43;0.30;0.03;0.00
70197;PMS5003;57582;-34.876;138.628;2023-08-31T04:01:43;0.27;0.00;0.00
70197;PMS5003;57582;-34.876;138.628;2023-08-31T04:04:43;0.40;0.00;0.00
70197;PMS5003;57582;-34.876;138.628;2023-08-31T04:07:43;0.00;0.00;0.00
70197;PMS5003;57582;-34.876;138.628;2023-08-31T04:10:43;0.00;0.00;0.00
70197;PMS5003;57582;-34.876;138.628;2023-08-31T04:13:43;0.00;0.00;0.00
70197;PMS5003;57582;-34.876;138.628;2023-08-31T04:16:43;0.00;0.00;0.00
70197;PMS5003;57582;-34.876;138.628;2023-08-31T04:19:43;0.00;0.00;0.00
70197;PMS5003;57582;-34.876;138.628;2023-08-31T04:22:43;0.33;0.07;0.03
70197;PMS5003;57582;-34.876;138.628;2023-08-31T04:25:43;0.00;0.00;0.00
70197;PMS5003;57582;-34.876;138.628;2023-08-31T04:28:43;0.00;0.00;0.00
70197;PMS5003;57582;-34.876;138.628;2023-08-31T04:31:43;0.00;0.00;0.00
70197;PMS5003;57582;-34.876;138.628;2023-08-31T04:34:43;0.50;0.00;0.00
70197;PMS5003;57582;-34.876;138.628;2023-08-31T04:37:43;0.30;0.00;0.00
70197;PMS5003;57582;-34.876;138.628;2023-08-31T04:40:43;0.00;0.00;0.00
70197;PMS5003;57582;-34.876;138.628;2023-08-31T04:43:43;0.50;0.50;0.00
70197;PMS5003;57582;-34.876;138.628;2023-08-31T04:46:44;0.00;0.00;0.00
70197;PMS5003;57582;-34.876;138.628;2023-08-31T04:49:43;0.00;0.00;0.00
70197;PMS5003;57582;-34.876;138.628;2023-08-31T04:52:43;0.47;0.10;0.00
70197;PMS5003;57582;-34.876;138.628;2023-08-31T04:55:43;1.57;0.00;0.00
70197;PMS5003;57582;-34.876;138.628;2023-08-31T04:58:44;0.43;0.07;0.00
70197;PMS5003;57582;-34.876;138.628;2023-08-31T05:01:43;2.20;0.13;0.00
70197;PMS5003;57582;-34.876;138.628;2023-08-31T05:04:43;0.50;0.00;0.00
70197;PMS5003;57582;-34.876;138.628;2023-08-31T05:07:43;0.77;0.03;0.03
70197;PMS5003;57582;-34.876;138.628;2023-08-31T05:10:45;0.00;0.00;0.00
70197;PMS5003;57582;-34.876;138.628;2023-08-31T05:13:43;0.00;0.00;0.00
70197;PMS5003;57582;-34.876;138.628;2023-08-31T05:16:43;0.00;0.00;0.00
70197;PMS5003;57582;-34.876;138.628;2023-08-31T05:19:43;0.13;0.13;0.00
70197;PMS5003;57582;-34.876;138.628;2023-08-31T05:22:43;0.47;0.00;0.00
70197;PMS5003;57582;-34.876;138.628;2023-08-31T05:25:44;0.00;0.00;0.00
70197;PMS5003;57582;-34.876;138.628;2023-08-31T05:28:43;0.00;0.00;0.00
70197;PMS5003;57582;-34.876;138.628;2023-08-31T05:31:43;0.00;0.00;0.00
70197;PMS5003;57582;-34.876;138.628;2023-08-31T05:34:44;0.17;0.17;0.13
70197;PMS5003;57582;-34.876;138.628;2023-08-31T05:37:43;0.00;0.00;0.00
70197;PMS5003;57582;-34.876;138.628;2023-08-31T05:40:43;0.00;0.00;0.00
70197;PMS5003;57582;-34.876;138.628;2023-08-31T05:43:43;0.20;0.00;0.00
70197;PMS5003;57582;-34.876;138.628;2023-08-31T05:46:43;0.07;0.00;0.00
70197;PMS5003;57582;-34.876;138.628;2023-08-31T05:49:43;0.07;0.07;0.00
70197;PMS5003;57582;-34.876;138.628;2023-08-31T05:52:43;0.37;0.00;0.00
70197;PMS5003;57582;-34.876;138.628;2023-08-31T05:55:43;0.43;0.03;0.00
70197;PMS5003;57582;-34.876;138.628;2023-08-31T05:58:43;0.00;0.00;0.00
70197;PMS5003;57582;-34.876;138.628;2023-08-31T06:01:43;0.53;0.00;0.00
70197;PMS5003;57582;-34.876;138.628;2023-08-31T06:04:43;0.50;0.50;0.27
70197;PMS5003;57582;-34.876;138.628;2023-08-31T06:07:44;0.00;0.00;0.00
70197;PMS5003;57582;-34.876;138.628;2023-08-31T06:10:44;0.00;0.00;0.00
70197;PMS5003;57582;-34.876;138.628;2023-08-31T06:13:43;0.00;0.00;0.00
70197;PMS5003;57582;-34.876;138.628;2023-08-31T06:16:43;0.00;0.00;0.00
70197;PMS5003;57582;-34.876;138.628;2023-08-31T06:19:43;0.00;0.00;0.00
70197;PMS5003;57582;-34.876;138.628;2023-08-31T06:22:43;0.00;0.00;0.00
70197;PMS5003;57582;-34.876;138.628;2023-08-31T06:25:43;0.00;0.00;0.00
70197;PMS5003;57582;-34.876;138.628;2023-08-31T06:28:43;0.00;0.00;0.00
70197;PMS5003;57582;-34.876;138.628;2023-08-31T06:31:43;0.07;0.07;0.00
70197;PMS5003;57582;-34.876;138.628;2023-08-31T06:34:45;0.00;0.00;0.00
70197;PMS5003;57582;-34.876;138.628;2023-08-31T06:37:43;0.00;0.00;0.00
70197;PMS5003;57582;-34.876;138.628;2023-08-31T06:40:43;0.00;0.00;0.00
70197;PMS5003;57582;-34.876;138.628;2023-08-31T06:43:43;0.27;0.27;0.00
70197;PMS5003;57582;-34.876;138.628;2023-08-31T06:46:43;0.00;0.00;0.00
70197;PMS5003;57582;-34.876;138.628;2023-08-31T06:49:43;0.00;0.00;0.00
70197;PMS5003;57582;-34.876;138.628;2023-08-31T06:52:43;0.30;0.00;0.00
70197;PMS5003;57582;-34.876;138.628;2023-08-31T06:55:43;0.17;0.17;0.00
70197;PMS5003;57582;-34.876;138.628;2023-08-31T06:58:44;0.00;0.00;0.00
70197;PMS5003;57582;-34.876;138.628;2023-08-31T07:01:43;0.00;0.00;0.00
70197;PMS5003;57582;-34.876;138.628;2023-08-31T07:04:43;0.40;0.07;0.00
70197;PMS5003;57582;-34.876;138.628;2023-08-31T07:07:43;0.00;0.00;0.00
70197;PMS5003;57582;-34.876;138.628;2023-08-31T07:10:44;0.10;0.10;0.00
70197;PMS5003;57582;-34.876;138.628;2023-08-31T07:13:43;0.00;0.00;0.00
70197;PMS5003;57582;-34.876;138.628;2023-08-31T07:16:43;0.33;0.00;0.00
70197;PMS5003;57582;-34.876;138.628;2023-08-31T07:19:43;0.00;0.00;0.00
70197;PMS5003;57582;-34.876;138.628;2023-08-31T07:22:44;0.00;0.00;0.00
70197;PMS5003;57582;-34.876;138.628;2023-08-31T07:25:43;0.00;0.00;0.00
70197;PMS5003;57582;-34.876;138.628;2023-08-31T07:28:43;0.00;0.00;0.00
70197;PMS5003;57582;-34.876;138.628;2023-08-31T07:31:43;0.00;0.00;0.00
70197;PMS5003;57582;-34.876;138.628;2023-08-31T07:34:44;0.43;0.00;0.00
70197;PMS5003;57582;-34.876;138.628;2023-08-31T07:37:43;0.07;0.07;0.00
70197;PMS5003;57582;-34.876;138.628;2023-08-31T07:40:43;0.20;0.20;0.00
70197;PMS5003;57582;-34.876;138.628;2023-08-31T07:43:43;1.43;0.20;0.00
70197;PMS5003;57582;-34.876;138.628;2023-08-31T07:46:44;0.20;0.00;0.00
70197;PMS5003;57582;-34.876;138.628;2023-08-31T07:49:43;0.10;0.10;0.00
70197;PMS5003;57582;-34.876;138.628;2023-08-31T07:52:43;0.07;0.07;0.00
70197;PMS5003;57582;-34.876;138.628;2023-08-31T07:55:51;0.17;0.17;0.00
70197;PMS5003;57582;-34.876;138.628;2023-08-31T07:58:44;2.13;0.13;0.00
70197;PMS5003;57582;-34.876;138.628;2023-08-31T08:01:44;0.97;0.03;0.00
70197;PMS5003;57582;-34.876;138.628;2023-08-31T08:04:45;0.00;0.00;0.00
70197;PMS5003;57582;-34.876;138.628;2023-08-31T08:07:43;0.00;0.00;0.00
70197;PMS5003;57582;-34.876;138.628;2023-08-31T08:10:44;0.00;0.00;0.00
70197;PMS5003;57582;-34.876;138.628;2023-08-31T08:13:44;0.00;0.00;0.00
70197;PMS5003;57582;-34.876;138.628;2023-08-31T08:16:43;0.93;0.23;0.00
70197;PMS5003;57582;-34.876;138.628;2023-08-31T08:19:43;0.03;0.03;0.00
70197;PMS5003;57582;-34.876;138.628;2023-08-31T08:22:44;0.30;0.30;0.00
70197;PMS5003;57582;-34.876;138.628;2023-08-31T08:25:43;0.00;0.00;0.00
70197;PMS5003;57582;-34.876;138.628;2023-08-31T08:28:43;0.40;0.40;0.00
70197;PMS5003;57582;-34.876;138.628;2023-08-31T08:31:43;0.03;0.03;0.00
70197;PMS5003;57582;-34.876;138.628;2023-08-31T08:34:44;0.40;0.40;0.00
70197;PMS5003;57582;-34.876;138.628;2023-08-31T08:37:43;0.63;0.20;0.00
70197;PMS5003;57582;-34.876;138.628;2023-08-31T08:40:43;0.00;0.00;0.00
70197;PMS5003;57582;-34.876;138.628;2023-08-31T08:43:44;1.23;0.90;0.00
70197;PMS5003;57582;-34.876;138.628;2023-08-31T08:46:45;1.50;0.63;0.00
70197;PMS5003;57582;-34.876;138.628;2023-08-31T08:49:47;1.40;1.40;0.03
70197;PMS5003;57582;-34.876;138.628;2023-08-31T08:52:44;1.50;0.77;0.00
70197;PMS5003;57582;-34.876;138.628;2023-08-31T08:55:43;1.43;0.83;0.00
70197;PMS5003;57582;-34.876;138.628;2023-08-31T08:58:44;1.20;0.33;0.00
70197;PMS5003;57582;-34.876;138.628;2023-08-31T09:01:43;1.30;1.23;0.33
70197;PMS5003;57582;-34.876;138.628;2023-08-31T09:04:43;0.20;0.20;0.00
70197;PMS5003;57582;-34.876;138.628;2023-08-31T09:08:13;0.50;0.50;0.00
70197;PMS5003;57582;-34.876;138.628;2023-08-31T09:10:44;0.97;0.97;0.00
70197;PMS5003;57582;-34.876;138.628;2023-08-31T09:13:43;0.33;0.33;0.00
70197;PMS5003;57582;-34.876;138.628;2023-08-31T09:16:48;0.93;0.93;0.70
70197;PMS5003;57582;-34.876;138.628;2023-08-31T09:19:43;0.00;0.00;0.00
70197;PMS5003;57582;-34.876;138.628;2023-08-31T09:22:44;0.67;0.67;0.00
70197;PMS5003;57582;-34.876;138.628;2023-08-31T09:25:45;0.33;0.33;0.00
70197;PMS5003;57582;-34.876;138.628;2023-08-31T09:28:43;2.13;0.67;0.00
70197;PMS5003;57582;-34.876;138.628;2023-08-31T09:31:44;0.37;0.20;0.00
70197;PMS5003;57582;-34.876;138.628;2023-08-31T09:34:45;1.03;0.00;0.00
70197;PMS5003;57582;-34.876;138.628;2023-08-31T09:37:54;0.80;0.20;0.00
70197;PMS5003;57582;-34.876;138.628;2023-08-31T09:40:44;0.47;0.47;0.00
70197;PMS5003;57582;-34.876;138.628;2023-08-31T09:43:43;1.43;1.43;0.97
70197;PMS5003;57582;-34.876;138.628;2023-08-31T09:46:45;1.33;1.33;0.37
70197;PMS5003;57582;-34.876;138.628;2023-08-31T09:49:44;0.33;0.33;0.00
70197;PMS5003;57582;-34.876;138.628;2023-08-31T09:52:45;0.37;0.37;0.00
70197;PMS5003;57582;-34.876;138.628;2023-08-31T09:55:44;2.07;1.73;0.23
70197;PMS5003;57582;-34.876;138.628;2023-08-31T09:58:44;1.50;1.00;0.57
70197;PMS5003;57582;-34.876;138.628;2023-08-31T10:01:45;2.50;1.23;0.00
70197;PMS5003;57582;-34.876;138.628;2023-08-31T10:04:44;0.67;0.67;0.00
70197;PMS5003;57582;-34.876;138.628;2023-08-31T10:07:44;1.10;0.47;0.03
70197;PMS5003;57582;-34.876;138.628;2023-08-31T10:10:45;0.43;0.43;0.33
70197;PMS5003;57582;-34.876;138.628;2023-08-31T10:13:45;1.00;1.00;0.00
70197;PMS5003;57582;-34.876;138.628;2023-08-31T10:16:45;0.37;0.37;0.00
70197;PMS5003;57582;-34.876;138.628;2023-08-31T10:19:43;0.47;0.47;0.00
70197;PMS5003;57582;-34.876;138.628;2023-08-31T10:22:44;1.30;0.53;0.00
70197;PMS5003;57582;-34.876;138.628;2023-08-31T10:28:43;0.60;0.53;0.00
70197;PMS5003;57582;-34.876;138.628;2023-08-31T10:31:47;0.00;0.00;0.00
70197;PMS5003;57582;-34.876;138.628;2023-08-31T10:34:44;0.00;0.00;0.00
70197;PMS5003;57582;-34.876;138.628;2023-08-31T10:37:43;0.93;0.47;0.00
70197;PMS5003;57582;-34.876;138.628;2023-08-31T10:40:59;0.00;0.00;0.00
70197;PMS5003;57582;-34.876;138.628;2023-08-31T10:43:59;0.00;0.00;0.00
70197;PMS5003;57582;-34.876;138.628;2023-08-31T10:46:44;0.03;0.00;0.00
70197;PMS5003;57582;-34.876;138.628;2023-08-31T10:49:50;1.40;0.37;0.00
70197;PMS5003;57582;-34.876;138.628;2023-08-31T10:52:44;0.40;0.27;0.00
70197;PMS5003;57582;-34.876;138.628;2023-08-31T10:55:52;1.33;0.00;0.00
70197;PMS5003;57582;-34.876;138.628;2023-08-31T10:59:01;1.73;0.63;0.33
70197;PMS5003;57582;-34.876;138.628;2023-08-31T11:01:57;1.10;0.87;0.27
70197;PMS5003;57582;-34.876;138.628;2023-08-31T11:05:15;0.63;0.63;0.43
70197;PMS5003;57582;-34.876;138.628;2023-08-31T11:07:47;1.30;1.30;0.20
70197;PMS5003;57582;-34.876;138.628;2023-08-31T11:10:46;1.33;1.33;0.33
70197;PMS5003;57582;-34.876;138.628;2023-08-31T11:13:43;0.00;0.00;0.00
70197;PMS5003;57582;-34.876;138.628;2023-08-31T11:16:44;0.67;0.67;0.30
70197;PMS5003;57582;-34.876;138.628;2023-08-31T11:19:44;1.87;1.87;0.27
70197;PMS5003;57582;-34.876;138.628;2023-08-31T11:22:47;2.93;1.07;0.83
70197;PMS5003;57582;-34.876;138.628;2023-08-31T11:25:44;2.40;1.73;0.10
70197;PMS5003;57582;-34.876;138.628;2023-08-31T11:28:44;1.43;0.83;0.33
70197;PMS5003;57582;-34.876;138.628;2023-08-31T11:31:44;1.17;0.77;0.00
70197;PMS5003;57582;-34.876;138.628;2023-08-31T11:34:45;2.13;0.13;0.00
70197;PMS5003;57582;-34.876;138.628;2023-08-31T11:37:45;0.43;0.33;0.03
70197;PMS5003;57582;-34.876;138.628;2023-08-31T11:40:43;3.00;2.17;1.03
70197;PMS5003;57582;-34.876;138.628;2023-08-31T11:43:44;1.00;0.97;0.70
70197;PMS5003;57582;-34.876;138.628;2023-08-31T11:46:46;1.33;1.33;0.07
70197;PMS5003;57582;-34.876;138.628;2023-08-31T11:49:44;1.63;1.30;0.43
70197;PMS5003;57582;-34.876;138.628;2023-08-31T11:52:44;1.27;1.27;0.23
70197;PMS5003;57582;-34.876;138.628;2023-08-31T11:55:51;0.80;0.80;0.00
70197;PMS5003;57582;-34.876;138.628;2023-08-31T11:58:44;1.53;1.23;0.37
70197;PMS5003;57582;-34.876;138.628;2023-08-31T12:01:46;1.47;1.13;0.27
70197;PMS5003;57582;-34.876;138.628;2023-08-31T12:04:44;2.43;2.43;0.63
70197;PMS5003;57582;-34.876;138.628;2023-08-31T12:07:43;0.10;0.10;0.00
70197;PMS5003;57582;-34.876;138.628;2023-08-31T12:10:45;1.80;1.70;0.87
70197;PMS5003;57582;-34.876;138.628;2023-08-31T12:13:44;2.30;1.40;1.23
70197;PMS5003;57582;-34.876;138.628;2023-08-31T12:16:44;3.40;2.70;1.60
70197;PMS5003;57582;-34.876;138.628;2023-08-31T12:19:44;1.33;1.23;0.47
70197;PMS5003;57582;-34.876;138.628;2023-08-31T12:22:44;1.93;1.30;1.13
70197;PMS5003;57582;-34.876;138.628;2023-08-31T12:25:52;2.00;2.00;1.00
70197;PMS5003;57582;-34.876;138.628;2023-08-31T12:28:44;2.13;1.40;0.60
70197;PMS5003;57582;-34.876;138.628;2023-08-31T12:31:43;2.97;2.20;0.90
70197;PMS5003;57582;-34.876;138.628;2023-08-31T12:34:44;2.70;1.87;1.10
70197;PMS5003;57582;-34.876;138.628;2023-08-31T12:37:43;1.70;1.03;0.00
70197;PMS5003;57582;-34.876;138.628;2023-08-31T12:40:44;3.10;2.40;1.30
70197;PMS5003;57582;-34.876;138.628;2023-08-31T12:43:44;2.90;2.53;1.40
70197;PMS5003;57582;-34.876;138.628;2023-08-31T12:46:44;2.47;2.40;1.00
70197;PMS5003;57582;-34.876;138.628;2023-08-31T12:49:44;2.07;2.07;0.87
70197;PMS5003;57582;-34.876;138.628;2023-08-31T12:52:44;4.20;3.40;2.20
70197;PMS5003;57582;-34.876;138.628;2023-08-31T12:55:44;3.90;3.70;2.23
70197;PMS5003;57582;-34.876;138.628;2023-08-31T12:58:44;3.70;3.70;1.73
70197;PMS5003;57582;-34.876;138.628;2023-08-31T13:01:44;6.03;3.37;2.27
70197;PMS5003;57582;-34.876;138.628;2023-08-31T13:04:44;4.97;3.30;2.17
70197;PMS5003;57582;-34.876;138.628;2023-08-31T13:07:44;5.80;5.50;3.17
70197;PMS5003;57582;-34.876;138.628;2023-08-31T13:10:53;3.87;3.83;2.17
70197;PMS5003;57582;-34.876;138.628;2023-08-31T13:13:44;4.80;4.80;3.17
70197;PMS5003;57582;-34.876;138.628;2023-08-31T13:16:44;4.53;4.53;3.23
70197;PMS5003;57582;-34.876;138.628;2023-08-31T13:19:44;5.07;5.07;3.47
70197;PMS5003;57582;-34.876;138.628;2023-08-31T13:22:44;5.37;5.37;3.63
70197;PMS5003;57582;-34.876;138.628;2023-08-31T13:25:44;5.73;5.73;3.47
70197;PMS5003;57582;-34.876;138.628;2023-08-31T13:28:44;7.10;6.67;3.47
70197;PMS5003;57582;-34.876;138.628;2023-08-31T13:31:44;9.90;9.90;4.70
70197;PMS5003;57582;-34.876;138.628;2023-08-31T13:34:44;6.87;6.37;3.20
70197;PMS5003;57582;-34.876;138.628;2023-08-31T13:37:44;9.30;9.30;4.73
70197;PMS5003;57582;-34.876;138.628;2023-08-31T13:40:44;6.83;6.60;4.00
70197;PMS5003;57582;-34.876;138.628;2023-08-31T13:43:44;4.33;4.33;2.30
70197;PMS5003;57582;-34.876;138.628;2023-08-31T13:46:44;4.47;4.47;3.43
70197;PMS5003;57582;-34.876;138.628;2023-08-31T13:49:44;3.50;3.50;2.63
70197;PMS5003;57582;-34.876;138.628;2023-08-31T13:52:45;4.30;4.13;3.33
70197;PMS5003;57582;-34.876;138.628;2023-08-31T13:55:45;5.67;3.97;2.47
70197;PMS5003;57582;-34.876;138.628;2023-08-31T13:58:44;5.43;3.70;2.83
70197;PMS5003;57582;-34.876;138.628;2023-08-31T14:01:44;3.77;3.03;2.03
70197;PMS5003;57582;-34.876;138.628;2023-08-31T14:04:44;4.03;2.93;2.17
70197;PMS5003;57582;-34.876;138.628;2023-08-31T14:07:44;3.80;3.80;1.93
70197;PMS5003;57582;-34.876;138.628;2023-08-31T14:10:44;2.17;2.17;1.87
70197;PMS5003;57582;-34.876;138.628;2023-08-31T14:13:44;3.53;3.00;1.83
70197;PMS5003;57582;-34.876;138.628;2023-08-31T14:16:44;3.80;3.80;2.53
70197;PMS5003;57582;-34.876;138.628;2023-08-31T14:19:44;3.30;2.83;2.00
70197;PMS5003;57582;-34.876;138.628;2023-08-31T14:22:45;2.87;2.87;2.27
70197;PMS5003;57582;-34.876;138.628;2023-08-31T14:25:44;3.10;2.47;1.30
70197;PMS5003;57582;-34.876;138.628;2023-08-31T14:28:44;3.63;3.63;2.53
70197;PMS5003;57582;-34.876;138.628;2023-08-31T14:31:44;3.50;2.50;1.10
70197;PMS5003;57582;-34.876;138.628;2023-08-31T14:34:44;4.17;3.33;1.97
70197;PMS5003;57582;-34.876;138.628;2023-08-31T14:37:44;3.00;3.00;2.00
70197;PMS5003;57582;-34.876;138.628;2023-08-31T14:40:44;2.43;2.43;1.57
70197;PMS5003;57582;-34.876;138.628;2023-08-31T14:43:44;3.23;2.90;1.97
70197;PMS5003;57582;-34.876;138.628;2023-08-31T14:46:44;3.60;3.17;2.00
70197;PMS5003;57582;-34.876;138.628;2023-08-31T14:49:44;3.03;2.93;2.47
70197;PMS5003;57582;-34.876;138.628;2023-08-31T14:52:44;3.10;3.10;1.30
70197;PMS5003;57582;-34.876;138.628;2023-08-31T14:55:51;3.10;3.10;1.57
70197;PMS5003;57582;-34.876;138.628;2023-08-31T14:58:44;1.97;1.97;0.87
70197;PMS5003;57582;-34.876;138.628;2023-08-31T15:04:44;5.37;4.67;2.90
70197;PMS5003;57582;-34.876;138.628;2023-08-31T15:07:44;4.20;3.47;1.93
70197;PMS5003;57582;-34.876;138.628;2023-08-31T15:10:44;4.47;3.37;1.37
70197;PMS5003;57582;-34.876;138.628;2023-08-31T15:13:44;4.10;3.63;1.93
70197;PMS5003;57582;-34.876;138.628;2023-08-31T15:16:44;4.07;3.53;1.40
70197;PMS5003;57582;-34.876;138.628;2023-08-31T15:19:44;3.57;3.10;2.10
70197;PMS5003;57582;-34.876;138.628;2023-08-31T15:22:45;2.33;2.20;1.20
70197;PMS5003;57582;-34.876;138.628;2023-08-31T15:25:44;2.00;2.00;1.53
70197;PMS5003;57582;-34.876;138.628;2023-08-31T15:28:44;2.87;2.43;1.40
70197;PMS5003;57582;-34.876;138.628;2023-08-31T15:31:44;2.47;2.47;0.97
70197;PMS5003;57582;-34.876;138.628;2023-08-31T15:34:45;4.87;2.70;1.40
70197;PMS5003;57582;-34.876;138.628;2023-08-31T15:37:44;7.30;4.30;2.70
70197;PMS5003;57582;-34.876;138.628;2023-08-31T15:40:47;2.57;1.80;0.93
70197;PMS5003;57582;-34.876;138.628;2023-08-31T15:43:44;3.47;3.47;1.90
70197;PMS5003;57582;-34.876;138.628;2023-08-31T15:46:44;2.60;2.60;1.80
70197;PMS5003;57582;-34.876;138.628;2023-08-31T15:49:44;2.00;1.67;1.37
70197;PMS5003;57582;-34.876;138.628;2023-08-31T15:52:44;1.87;1.13;1.00
70197;PMS5003;57582;-34.876;138.628;2023-08-31T15:55:48;3.77;2.87;1.70
70197;PMS5003;57582;-34.876;138.628;2023-08-31T15:58:45;3.47;3.47;2.00
70197;PMS5003;57582;-34.876;138.628;2023-08-31T16:01:44;2.73;2.73;1.03
70197;PMS5003;57582;-34.876;138.628;2023-08-31T16:04:44;2.37;2.00;1.03
70197;PMS5003;57582;-34.876;138.628;2023-08-31T16:07:44;3.43;3.43;1.80
70197;PMS5003;57582;-34.876;138.628;2023-08-31T16:10:45;1.83;1.83;1.27
70197;PMS5003;57582;-34.876;138.628;2023-08-31T16:13:44;2.43;2.43;1.27
70197;PMS5003;57582;-34.876;138.628;2023-08-31T16:16:44;3.97;3.97;1.83
70197;PMS5003;57582;-34.876;138.628;2023-08-31T16:19:44;3.03;2.63;1.03
70197;PMS5003;57582;-34.876;138.628;2023-08-31T16:22:45;2.13;2.13;1.20
70197;PMS5003;57582;-34.876;138.628;2023-08-31T16:25:44;1.20;1.07;0.33
70197;PMS5003;57582;-34.876;138.628;2023-08-31T16:28:44;1.93;1.93;0.80
70197;PMS5003;57582;-34.876;138.628;2023-08-31T16:31:44;1.87;1.87;0.97
70197;PMS5003;57582;-34.876;138.628;2023-08-31T16:34:44;2.30;1.77;0.80
70197;PMS5003;57582;-34.876;138.628;2023-08-31T16:37:44;1.90;1.90;0.80
70197;PMS5003;57582;-34.876;138.628;2023-08-31T16:40:44;1.47;1.47;0.93
70197;PMS5003;57582;-34.876;138.628;2023-08-31T16:43:44;2.77;2.20;1.00
70197;PMS5003;57582;-34.876;138.628;2023-08-31T16:46:45;2.67;1.73;1.27
70197;PMS5003;57582;-34.876;138.628;2023-08-31T16:49:44;1.93;1.43;1.10
70197;PMS5003;57582;-34.876;138.628;2023-08-31T16:52:44;2.70;2.70;1.10
70197;PMS5003;57582;-34.876;138.628;2023-08-31T16:55:44;2.63;2.57;0.97
70197;PMS5003;57582;-34.876;138.628;2023-08-31T16:58:44;1.57;1.57;0.93